Time;durP1;ratioP1;P1;durP2;ratioP2;P2;SDS_P1;SDS_P2;PMS_P1;PMS_P2;Temp;Humidity;BMP_temperature;BMP_pressure;BME280_temperature;BME280_humidity;BME280_pressure;Samples;Min_cycle;Max_cycle;Signal;HPM_P1;HPM_P2
2021/09/17 00:00:15;;;;;;;;;;;;;;;;;;5073501;28;19935;-78
2021/09/17 00:02:40;;;;;;;;;;;;;;;;;;5073736;28;19916;-79
2021/09/17 00:05:06;;;;;;;;;;;;;;;;;;5073596;28;19916;-78
2021/09/17 00:07:31;;;;;;;;;;;;;;;;;;5073421;28;19923;-78
2021/09/17 00:09:57;;;;;;;;;;;;;;;;;;5073813;28;19923;-79
2021/09/17 00:12:23;;;;;;;;;;;;;;;;;;5073425;28;19995;-81
2021/09/17 00:14:48;;;;;;;;;;;;;;;;;;5073397;28;20372;-80
2021/09/17 00:17:14;;;;;;;;;;;;;;;;;;5073388;28;19917;-81
2021/09/17 00:19:39;;;;;;;;;;;;;;;;;;5073303;28;19969;-80
2021/09/17 00:22:05;;;;;;;;;;;;;;;;;;5076686;28;19916;-79
2021/09/17 00:24:32;;;;;;;;;;;;;;;;;;5077481;28;20265;-80
2021/09/17 00:26:58;;;;;;;;;;;;;;;;;;5077333;28;19943;-80
2021/09/17 00:29:23;;;;;;;;;;;;;;;;;;5059215;28;19921;-79
2021/09/17 00:31:49;;;;;;;;;;;;;;;;;;5076059;28;19916;-79
2021/09/17 00:34:14;;;;;;;;;;;;;;;;;;5077026;28;19920;-80
2021/09/17 00:36:39;;;;;;;;;;;;;;;;;;5077140;28;19917;-80
2021/09/17 00:39:05;;;;;;;;;;;;;;;;;;5077043;28;19914;-80
2021/09/17 00:41:30;;;;;;;;;;;;;;;;;;5076774;28;19920;-80
2021/09/17 00:43:56;;;;;;;;;;;;;;;;;;5077061;28;19935;-81
2021/09/17 00:46:21;;;;;;;;;;;;;;;;;;5077025;28;19916;-79
2021/09/17 00:48:47;;;;;;;;;;;;;;;;;;5076894;28;19923;-80
2021/09/17 00:51:12;;;;;;;;;;;;;;;;;;5075319;28;19916;-80
2021/09/17 00:53:38;;;;;;;;;;;;;;;;;;5076587;28;19950;-80
2021/09/17 00:56:04;;;;;;;;;;;;;;;;;;5076937;28;19942;-79
2021/09/17 00:58:30;;;;;;;;;;;;;;;;;;5076990;28;20355;-79
2021/09/17 01:00:56;;;;;;;;;;;;;;;;;;5076612;28;19978;-80
2021/09/17 01:03:21;;;;;;;;;;;;;;;;;;5076483;28;19917;-80
2021/09/17 01:05:47;;;;;;;;;;;;;;;;;;5076854;28;19963;-80
2021/09/17 01:08:12;;;;;;;;;;;;;;;;;;5076701;28;19923;-80
2021/09/17 01:10:37;;;;;;;;;;;;;;;;;;5076412;28;19916;-80
2021/09/17 01:13:03;;;;;;;;;;;;;;;;;;5076465;28;19970;-79
2021/09/17 01:15:28;;;;;;;;;;;;;;;;;;5076295;28;19920;-79
2021/09/17 01:17:54;;;;;;;;;;;;;;;;;;5076360;28;19916;-80
2021/09/17 01:20:20;;;;;;;;;;;;;;;;;;5076312;28;19956;-80
2021/09/17 01:22:47;;;;;;;;;;;;;;;;;;5076767;28;19916;-80
2021/09/17 01:25:14;;;;;;;;;;;;;;;;;;5076127;28;20067;-81
2021/09/17 01:27:40;;;;;;;;;;;;;;;;;;5076244;28;19916;-80
2021/09/17 01:30:06;;;;;;;;;;;;;;;;;;5076418;28;19917;-79
2021/09/17 01:32:32;;;;;;;;;;;;;;;;;;5075432;28;19923;-79
2021/09/17 01:34:57;;;;;;;;;;;;;;;;;;5076069;28;19916;-80
2021/09/17 01:37:23;;;;;;;;;;;;;;;;;;5076053;28;19916;-79
2021/09/17 01:39:48;;;;;;;;;;;;;;;;;;5076023;28;19920;-80
2021/09/17 01:42:13;;;;;;;;;;;;;;;;;;5075780;28;20020;-80
2021/09/17 01:44:40;;;;;;;;;;;;;;;;;;5075894;28;19963;-81
2021/09/17 01:47:06;;;;;;;;;;;;;;;;;;5075860;28;19955;-79
2021/09/17 01:49:32;;;;;;;;;;;;;;;;;;5075796;28;20347;-79
2021/09/17 01:51:57;;;;;;;;;;;;;;;;;;5075556;28;19923;-80
2021/09/17 01:54:23;;;;;;;;;;;;;;;;;;5075462;28;20331;-79
2021/09/17 01:56:48;;;;;;;;;;;;;;;;;;5075657;28;19917;-80
2021/09/17 01:59:14;;;;;;;;;;;;;;;;;;5075576;28;19917;-81
2021/09/17 02:01:39;;;;;;;;;;;;;;;;;;5075481;28;19917;-80
2021/09/17 02:04:04;;;;;;;;;;;;;;;;;;5075528;28;19932;-79
2021/09/17 02:06:30;;;;;;;;;;;;;;;;;;5074134;28;19912;-79
2021/09/17 02:08:56;;;;;;;;;;;;;;;;;;5075441;28;19926;-79
2021/09/17 02:11:22;;;;;;;;;;;;;;;;;;5075259;28;19919;-79
2021/09/17 02:13:48;;;;;;;;;;;;;;;;;;5075222;28;20379;-80
2021/09/17 02:16:13;;;;;;;;;;;;;;;;;;5075297;28;19921;-80
2021/09/17 02:18:39;;;;;;;;;;;;;;;;;;5075211;28;19920;-80
2021/09/17 02:21:04;;;;;;;;;;;;;;;;;;5075051;28;19923;-79
2021/09/17 02:23:33;;;;;;;;;;;;;;;;;;5075106;28;19934;-79
2021/09/17 02:25:58;;;;;;;;;;;;;;;;;;5075530;28;19916;-79
2021/09/17 02:28:24;;;;;;;;;;;;;;;;;;5075206;28;19924;-79
2021/09/17 02:30:49;;;;;;;;;;;;;;;;;;5074884;28;20015;-80
2021/09/17 02:33:14;;;;;;;;;;;;;;;;;;5074721;28;19927;-79
2021/09/17 02:35:40;;;;;;;;;;;;;;;;;;5075025;28;19917;-79
2021/09/17 02:38:06;;;;;;;;;;;;;;;;;;5074987;28;19917;-79
2021/09/17 02:40:31;;;;;;;;;;;;;;;;;;5073790;28;20288;-79
2021/09/17 02:42:57;;;;;;;;;;;;;;;;;;5074752;28;20011;-80
2021/09/17 02:45:22;;;;;;;;;;;;;;;;;;5073745;28;19916;-79
2021/09/17 02:47:48;;;;;;;;;;;;;;;;;;5074660;28;20257;-79
2021/09/17 02:50:13;;;;;;;;;;;;;;;;;;5074551;28;20358;-79
2021/09/17 02:52:39;;;;;;;;;;;;;;;;;;5074275;28;19922;-80
2021/09/17 02:55:05;;;;;;;;;;;;;;;;;;5074418;28;19956;-79
2021/09/17 02:57:30;;;;;;;;;;;;;;;;;;5074523;28;19927;-90
2021/09/17 02:59:56;;;;;;;;;;;;;;;;;;5074400;28;20015;-79
2021/09/17 03:02:21;;;;;;;;;;;;;;;;;;5074387;28;20350;-79
2021/09/17 03:04:47;;;;;;;;;;;;;;;;;;5074421;28;20390;-79
2021/09/17 03:07:12;;;;;;;;;;;;;;;;;;5075141;28;19916;-79
2021/09/17 03:09:38;;;;;;;;;;;;;;;;;;5092412;28;19924;-87
2021/09/17 03:12:04;;;;;;;;;;;;;;;;;;5093919;28;19972;-79
2021/09/17 03:14:29;;;;;;;;;;;;;;;;;;5097268;28;19963;-80
2021/09/17 03:16:55;;;;;;;;;;;;;;;;;;5094658;28;20383;-79
2021/09/17 03:19:20;;;;;;;;;;;;;;;;;;5094606;28;20399;-80
2021/09/17 03:21:46;;;;;;;;;;;;;;;;;;5094152;28;19920;-79
2021/09/17 03:24:11;;;;;;;;;;;;;;;;;;5094868;28;20005;-79
2021/09/17 03:26:37;;;;;;;;;;;;;;;;;;5094324;28;19927;-80
2021/09/17 03:29:03;;;;;;;;;;;;;;;;;;5094506;28;19949;-79
2021/09/17 03:31:28;;;;;;;;;;;;;;;;;;5093967;28;19916;-79
2021/09/17 03:33:55;;;;;;;;;;;;;;;;;;5092925;28;20018;-79
2021/09/17 03:36:20;;;;;;;;;;;;;;;;;;5094294;28;19923;-79
2021/09/17 03:38:46;;;;;;;;;;;;;;;;;;5094210;28;19916;-79
2021/09/17 03:41:11;;;;;;;;;;;;;;;;;;5093978;28;20359;-80
2021/09/17 03:43:36;;;;;;;;;;;;;;;;;;5093970;28;19923;-79
2021/09/17 03:46:02;;;;;;;;;;;;;;;;;;5094002;28;20360;-79
2021/09/17 03:48:28;;;;;;;;;;;;;;;;;;5094038;28;19916;-79
2021/09/17 03:50:53;;;;;;;;;;;;;;;;;;5092710;28;19927;-79
2021/09/17 03:53:19;;;;;;;;;;;;;;;;;;5093651;28;20315;-79
2021/09/17 03:55:44;;;;;;;;;;;;;;;;;;5093550;28;20368;-79
2021/09/17 03:58:10;;;;;;;;;;;;;;;;;;5093991;28;19969;-79
2021/09/17 04:00:41;;;;;;;;;;;;;;;;;;5094979;28;19923;-80
2021/09/17 04:03:07;;;;;;;;;;;;;;;;;;5095177;28;20372;-81
2021/09/17 04:05:32;;;;;;;;;;;;;;;;;;5094045;28;19916;-79
2021/09/17 04:07:58;;;;;;;;;;;;;;;;;;5095295;28;19916;-78
2021/09/17 04:10:23;;;;;;;;;;;;;;;;;;5097672;28;19920;-79
2021/09/17 04:12:49;;;;;;;;;;;;;;;;;;5093889;28;19961;-79
2021/09/17 04:15:15;;;;;;;;;;;;;;;;;;5093978;28;19967;-78
2021/09/17 04:17:40;;;;;;;;;;;;;;;;;;5093625;28;19916;-77
2021/09/17 04:20:07;;;;;;;;;;;;;;;;;;5092516;28;19916;-79
2021/09/17 04:22:32;;;;;;;;;;;;;;;;;;5093914;28;20375;-81
2021/09/17 04:24:58;;;;;;;;;;;;;;;;;;5093669;28;19921;-81
2021/09/17 04:27:25;;;;;;;;;;;;;;;;;;5092351;28;20290;-81
2021/09/17 04:29:51;;;;;;;;;;;;;;;;;;5093652;28;20036;-80
2021/09/17 04:32:16;;;;;;;;;;;;;;;;;;5093649;28;20405;-80
2021/09/17 04:34:42;;;;;;;;;;;;;;;;;;5092340;28;19916;-82
2021/09/17 04:37:07;;;;;;;;;;;;;;;;;;5093702;28;19917;-81
2021/09/17 04:39:32;;;;;;;;;;;;;;;;;;5093628;28;19923;-81
2021/09/17 04:41:58;;;;;;;;;;;;;;;;;;5093612;28;19916;-80
2021/09/17 04:44:23;;;;;;;;;;;;;;;;;;5093963;28;19920;-81
2021/09/17 04:46:49;;;;;;;;;;;;;;;;;;5093454;28;19920;-81
2021/09/17 04:49:14;;;;;;;;;;;;;;;;;;5093596;28;19917;-81
2021/09/17 04:51:40;;;;;;;;;;;;;;;;;;5093340;28;19916;-82
2021/09/17 04:54:05;;;;;;;;;;;;;;;;;;5091949;28;19924;-81
2021/09/17 04:56:31;;;;;;;;;;;;;;;;;;5093588;28;19916;-81
2021/09/17 04:58:56;;;;;;;;;;;;;;;;;;5093574;28;19916;-80
2021/09/17 05:01:22;;;;;;;;;;;;;;;;;;5093194;28;19969;-80
2021/09/17 05:03:50;;;;;;;;;;;;;;;;;;5093696;28;20023;-81
2021/09/17 05:06:15;;;;;;;;;;;;;;;;;;5093413;28;19916;-81
2021/09/17 05:08:41;;;;;;;;;;;;;;;;;;5095744;28;20359;-80
2021/09/17 05:11:06;;;;;;;;;;;;;;;;;;5096989;28;19916;-81
2021/09/17 05:13:32;;;;;;;;;;;;;;;;;;5096709;28;19962;-81
2021/09/17 05:15:57;;;;;;;;;;;;;;;;;;5095574;28;19916;-82
2021/09/17 05:18:23;;;;;;;;;;;;;;;;;;5096814;28;19916;-81
2021/09/17 05:20:49;;;;;;;;;;;;;;;;;;5096767;28;20015;-81
2021/09/17 05:23:14;;;;;;;;;;;;;;;;;;5095529;28;20024;-81
2021/09/17 05:25:39;;;;;;;;;;;;;;;;;;5096686;28;20260;-81
2021/09/17 05:28:05;;;;;;;;;;;;;;;;;;5096691;28;19938;-81
2021/09/17 05:30:31;;;;;;;;;;;;;;;;;;5095294;28;19916;-81
2021/09/17 05:32:56;;;;;;;;;;;;;;;;;;5096467;28;19916;-81
2021/09/17 05:35:22;;;;;;;;;;;;;;;;;;5096277;28;19916;-81
2021/09/17 05:37:47;;;;;;;;;;;;;;;;;;5096560;28;19916;-80
2021/09/17 05:40:13;;;;;;;;;;;;;;;;;;5096371;28;19916;-81
2021/09/17 05:42:38;;;;;;;;;;;;;;;;;;5096146;28;19916;-82
2021/09/17 05:45:05;;;;;;;;;;;;;;;;;;5096295;28;20015;-81
2021/09/17 05:47:31;;;;;;;;;;;;;;;;;;5096293;28;19916;-80
2021/09/17 05:49:56;;;;;;;;;;;;;;;;;;5096297;28;19962;-81
2021/09/17 05:52:22;;;;;;;;;;;;;;;;;;5095983;28;20003;-80
2021/09/17 05:54:47;;;;;;;;;;;;;;;;;;5095906;28;20321;-81
2021/09/17 05:57:13;;;;;;;;;;;;;;;;;;5096086;28;19921;-81
2021/09/17 05:59:38;;;;;;;;;;;;;;;;;;5095937;28;19943;-81
2021/09/17 06:02:06;;;;;;;;;;;;;;;;;;5095767;28;19924;-82
2021/09/17 06:04:32;;;;;;;;;;;;;;;;;;5096098;28;19939;-80
2021/09/17 06:06:57;;;;;;;;;;;;;;;;;;5095849;28;20364;-81
2021/09/17 06:09:23;;;;;;;;;;;;;;;;;;5095756;28;19943;-81
2021/09/17 06:11:48;;;;;;;;;;;;;;;;;;5095605;28;19916;-81
2021/09/17 06:14:13;;;;;;;;;;;;;;;;;;5095558;28;19920;-81
2021/09/17 06:16:39;;;;;;;;;;;;;;;;;;5095578;28;19916;-81
2021/09/17 06:19:04;;;;;;;;;;;;;;;;;;5095501;28;19916;-81
2021/09/17 06:21:30;;;;;;;;;;;;;;;;;;5095366;28;20002;-81
2021/09/17 06:23:56;;;;;;;;;;;;;;;;;;5095658;28;20363;-82
2021/09/17 06:26:22;;;;;;;;;;;;;;;;;;5095688;28;19917;-81
2021/09/17 06:28:47;;;;;;;;;;;;;;;;;;5095363;28;19916;-82
2021/09/17 06:31:12;;;;;;;;;;;;;;;;;;5095493;28;19916;-83
2021/09/17 06:33:38;;;;;;;;;;;;;;;;;;5095165;28;20307;-82
2021/09/17 06:36:03;;;;;;;;;;;;;;;;;;5095256;28;19969;-81
2021/09/17 06:38:29;;;;;;;;;;;;;;;;;;5095215;28;19954;-82
2021/09/17 06:40:55;;;;;;;;;;;;;;;;;;5095258;28;20282;-82
2021/09/17 06:43:20;;;;;;;;;;;;;;;;;;5094903;28;19978;-83
2021/09/17 06:45:45;;;;;;;;;;;;;;;;;;5095046;28;19924;-84
2021/09/17 06:48:11;;;;;;;;;;;;;;;;;;5095020;28;19939;-84
2021/09/17 06:50:37;;;;;;;;;;;;;;;;;;5094913;28;20011;-83
2021/09/17 06:53:02;;;;;;;;;;;;;;;;;;5094595;28;19984;-83
2021/09/17 06:55:29;;;;;;;;;;;;;;;;;;5094794;28;20032;-83
2021/09/17 06:57:56;;;;;;;;;;;;;;;;;;5094908;28;19916;-83
2021/09/17 07:00:22;;;;;;;;;;;;;;;;;;5094853;28;19922;-82
2021/09/17 07:02:47;;;;;;;;;;;;;;;;;;5094619;28;19923;-82
2021/09/17 07:05:13;;;;;;;;;;;;;;;;;;5094817;28;19987;-82
2021/09/17 07:07:39;;;;;;;;;;;;;;;;;;5094574;28;19926;-83
2021/09/17 07:10:05;;;;;;;;;;;;;;;;;;5094719;28;20359;-82
2021/09/17 07:12:31;;;;;;;;;;;;;;;;;;5094519;28;19941;-82
2021/09/17 07:14:56;;;;;;;;;;;;;;;;;;5094740;28;20014;-82
2021/09/17 07:17:22;;;;;;;;;;;;;;;;;;5094679;28;19923;-82
2021/09/17 07:19:47;;;;;;;;;;;;;;;;;;5104393;28;19916;-83
2021/09/17 07:22:13;;;;;;;;;;;;;;;;;;5105290;28;19932;-82
2021/09/17 07:24:38;;;;;;;;;;;;;;;;;;5101602;28;20417;-83
2021/09/17 07:27:04;;;;;;;;;;;;;;;;;;5095026;28;19947;-83
2021/09/17 07:29:29;;;;;;;;;;;;;;;;;;5093374;28;20011;-83
2021/09/17 07:31:55;;;;;;;;;;;;;;;;;;5093924;28;19916;-84
2021/09/17 07:34:20;;;;;;;;;;;;;;;;;;5094184;28;19969;-84
2021/09/17 07:36:46;;;;;;;;;;;;;;;;;;5092931;28;20398;-84
2021/09/17 07:39:11;;;;;;;;;;;;;;;;;;5094228;28;19923;-84
2021/09/17 07:41:36;;;;;;;;;;;;;;;;;;5093996;28;19920;-83
2021/09/17 07:44:02;;;;;;;;;;;;;;;;;;5094258;28;19916;-83
2021/09/17 07:46:27;;;;;;;;;;;;;;;;;;5094205;28;19923;-84
2021/09/17 07:48:53;;;;;;;;;;;;;;;;;;5094202;28;19981;-82
2021/09/17 07:51:18;;;;;;;;;;;;;;;;;;5094037;28;19938;-84
2021/09/17 07:53:44;;;;;;;;;;;;;;;;;;5093698;28;19924;-83
2021/09/17 07:56:09;;;;;;;;;;;;;;;;;;5092709;28;19920;-83
2021/09/17 07:58:35;;;;;;;;;;;;;;;;;;5093928;28;19941;-83
2021/09/17 08:01:00;;;;;;;;;;;;;;;;;;5094098;28;19916;-84
2021/09/17 08:03:29;;;;;;;;;;;;;;;;;;5093758;28;19924;-84
2021/09/17 08:05:55;;;;;;;;;;;;;;;;;;5094011;28;19923;-84
2021/09/17 08:08:21;;;;;;;;;;;;;;;;;;5093862;28;20284;-84
2021/09/17 08:10:46;;;;;;;;;;;;;;;;;;5093887;28;19916;-84
2021/09/17 08:13:12;;;;;;;;;;;;;;;;;;5093705;28;19923;-83
2021/09/17 08:15:37;;;;;;;;;;;;;;;;;;5093688;28;19924;-83
2021/09/17 08:18:03;;;;;;;;;;;;;;;;;;5094095;28;19939;-84
2021/09/17 08:20:28;;;;;;;;;;;;;;;;;;5093690;28;19958;-83
2021/09/17 08:22:54;;;;;;;;;;;;;;;;;;5093628;28;19973;-83
2021/09/17 08:25:19;;;;;;;;;;;;;;;;;;5093676;28;19997;-83
2021/09/17 08:27:45;;;;;;;;;;;;;;;;;;5093686;28;20279;-84
2021/09/17 08:30:11;;;;;;;;;;;;;;;;;;5093741;28;19916;-82
2021/09/17 08:32:39;;;;;;;;;;;;;;;;;;5093798;28;20011;-84
2021/09/17 08:35:05;;;;;;;;;;;;;;;;;;5093784;28;19973;-83
2021/09/17 08:37:30;;;;;;;;;;;;;;;;;;5093462;28;20299;-83
2021/09/17 08:39:56;;;;;;;;;;;;;;;;;;5092988;28;19916;-83
2021/09/17 08:42:21;;;;;;;;;;;;;;;;;;5094044;28;20288;-84
2021/09/17 08:44:47;;;;;;;;;;;;;;;;;;5097515;28;19968;-83
2021/09/17 08:47:15;;;;;;;;;;;;;;;;;;5097484;28;20008;-83
2021/09/17 08:49:40;;;;;;;;;;;;;;;;;;5097242;28;20015;-83
2021/09/17 08:52:06;;;;;;;;;;;;;;;;;;5097412;28;19963;-84
2021/09/17 08:54:31;;;;;;;;;;;;;;;;;;5096885;28;20367;-84
2021/09/17 08:56:57;;;;;;;;;;;;;;;;;;5096869;28;19923;-83
2021/09/17 08:59:22;;;;;;;;;;;;;;;;;;5096070;28;19916;-83
2021/09/17 09:01:48;;;;;;;;;;;;;;;;;;5096433;28;19919;-83
2021/09/17 09:04:14;;;;;;;;;;;;;;;;;;5097303;28;20279;-84
2021/09/17 09:06:42;;;;;;;;;;;;;;;;;;5096715;28;20349;-83
2021/09/17 09:09:14;;;;;;;;;;;;;;;;;;5097087;28;19939;-83
2021/09/17 09:11:40;;;;;;;;;;;;;;;;;;5096800;28;19924;-82
2021/09/17 09:14:10;;;;;;;;;;;;;;;;;;5096671;28;19922;-82
2021/09/17 09:16:40;;;;;;;;;;;;;;;;;;5096824;28;19916;-82
2021/09/17 09:19:16;;;;;;;;;;;;;;;;;;5095569;28;19966;-82
2021/09/17 09:21:41;;;;;;;;;;;;;;;;;;5096531;28;19974;-82
2021/09/17 09:24:08;;;;;;;;;;;;;;;;;;5096458;28;19917;-82
2021/09/17 09:26:34;;;;;;;;;;;;;;;;;;5096136;28;20444;-81
2021/09/17 09:28:59;;;;;;;;;;;;;;;;;;5095191;28;20002;-82
2021/09/17 09:31:25;;;;;;;;;;;;;;;;;;5096423;28;19946;-83
2021/09/17 09:33:52;;;;;;;;;;;;;;;;;;5096218;28;20368;-81
2021/09/17 09:36:19;;;;;;;;;;;;;;;;;;5096395;28;19917;-82
2021/09/17 09:38:54;;;;;;;;;;;;;;;;;;5095036;28;20372;-82
2021/09/17 09:41:21;;;;;;;;;;;;;;;;;;5096338;28;19916;-82
2021/09/17 09:43:51;;;;;;;;;;;;;;;;;;5094774;28;20385;-81
2021/09/17 09:46:30;;;;;;;;;;;;;;;;;;5096115;28;20014;-81
2021/09/17 09:48:59;;;;;;;;;;;;;;;;;;5094879;28;20368;-81
2021/09/17 09:51:25;;;;;;;;;;;;;;;;;;5096077;28;19920;-81
2021/09/17 09:53:50;;;;;;;;;;;;;;;;;;5095200;28;19966;-81
2021/09/17 09:56:17;;;;;;;;;;;;;;;;;;5094663;28;19961;-82
2021/09/17 09:58:43;;;;;;;;;;;;;;;;;;5096214;28;19916;-81
2021/09/17 10:01:09;;;;;;;;;;;;;;;;;;5094877;28;19916;-82
2021/09/17 10:03:36;;;;;;;;;;;;;;;;;;5094059;28;19916;-81
2021/09/17 10:06:01;;;;;;;;;;;;;;;;;;5095802;28;19966;-81
2021/09/17 10:08:27;;;;;;;;;;;;;;;;;;5094006;28;19956;-81
2021/09/17 10:10:53;;;;;;;;;;;;;;;;;;5095810;28;19920;-81
2021/09/17 10:13:19;;;;;;;;;;;;;;;;;;5094158;28;19919;-82
2021/09/17 10:15:44;;;;;;;;;;;;;;;;;;5095420;28;19916;-82
2021/09/17 10:18:10;;;;;;;;;;;;;;;;;;5095500;28;20337;-83
2021/09/17 10:20:36;;;;;;;;;;;;;;;;;;5095464;28;19912;-81
2021/09/17 10:23:22;;;;;;;;;;;;;;;;;;5095359;28;19917;-82
2021/09/17 10:26:07;;;;;;;;;;;;;;;;;;5095365;28;19912;-82
2021/09/17 10:28:33;;;;;;;;;;;;;;;;;;5095175;28;19923;-82
2021/09/17 10:31:10;;;;;;;;;;;;;;;;;;5093921;28;19912;-81
2021/09/17 10:33:35;;;;;;;;;;;;;;;;;;5095032;28;19976;-81
2021/09/17 10:36:01;;;;;;;;;;;;;;;;;;5095201;28;20451;-82
2021/09/17 10:38:27;;;;;;;;;;;;;;;;;;5095126;28;19916;-80
2021/09/17 10:41:02;;;;;;;;;;;;;;;;;;5095334;28;20409;-87
2021/09/17 10:43:28;;;;;;;;;;;;;;;;;;5094845;28;19974;-79
2021/09/17 10:45:58;;;;;;;;;;;;;;;;;;5095202;28;20387;-79
2021/09/17 10:48:48;;;;;;;;;;;;;;;;;;5094485;28;19916;-80
2021/09/17 10:51:36;;;;;;;;;;;;;;;;;;5088589;28;19916;-80
2021/09/17 10:54:05;;;;;;;;;;;;;;;;;;5085211;28;19946;-80
2021/09/17 10:56:48;;;;;;;;;;;;;;;;;;5094999;28;19939;-80
2021/09/17 10:59:21;;;;;;;;;;;;;;;;;;5094795;28;19991;-81
2021/09/17 11:01:53;;;;;;;;;;;;;;;;;;5093689;28;19920;-79
2021/09/17 11:04:26;;;;;;;;;;;;;;;;;;5094643;28;19912;-81
2021/09/17 11:06:52;;;;;;;;;;;;;;;;;;5092302;28;19961;-80
2021/09/17 11:09:36;;;;;;;;;;;;;;;;;;5094696;28;19994;-80
2021/09/17 11:12:13;;;;;;;;;;;;;;;;;;5094502;28;20240;-81
2021/09/17 11:14:38;;;;;;;;;;;;;;;;;;5093900;28;19923;-81
2021/09/17 11:17:03;;;;;;;;;;;;;;;;;;5094196;28;19920;-81
2021/09/17 11:19:29;;;;;;;;;;;;;;;;;;5094137;28;19919;-81
2021/09/17 11:21:54;;;;;;;;;;;;;;;;;;5085147;28;20299;-89
2021/09/17 11:24:29;;;;;;;;;;;;;;;;;;5072776;28;19923;-82
2021/09/17 11:26:57;;;;;;;;;;;;;;;;;;5073380;28;19917;-86
2021/09/17 11:29:24;;;;;;;;;;;;;;;;;;5082660;28;19921;-91
2021/09/17 11:31:54;;;;;;;;;;;;;;;;;;5074388;28;20437;-84
2021/09/17 11:34:21;;;;;;;;;;;;;;;;;;5075258;28;20066;-83
2021/09/17 11:36:58;;;;;;;;;;;;;;;;;;5094488;28;19916;-82
2021/09/17 11:39:24;;;;;;;;;;;;;;;;;;5092723;28;19962;-83
2021/09/17 11:41:51;;;;;;;;;;;;;;;;;;5086368;28;19922;-84
2021/09/17 11:44:34;;;;;;;;;;;;;;;;;;5092974;28;19970;-82
2021/09/17 11:47:00;;;;;;;;;;;;;;;;;;5092604;28;19920;-83
2021/09/17 11:49:26;;;;;;;;;;;;;;;;;;5093649;28;19927;-81
2021/09/17 11:52:02;;;;;;;;;;;;;;;;;;5093585;28;19977;-83
2021/09/17 11:54:28;;;;;;;;;;;;;;;;;;5093520;28;20253;-81
2021/09/17 11:56:57;;;;;;;;;;;;;;;;;;5093144;28;19927;-83
2021/09/17 11:59:33;;;;;;;;;;;;;;;;;;5092303;28;19912;-82
2021/09/17 12:02:24;;;;;;;;;;;;;;;;;;5093906;28;19916;-80
2021/09/17 12:04:52;;;;;;;;;;;;;;;;;;5093198;28;19939;-83
2021/09/17 12:07:18;;;;;;;;;;;;;;;;;;5092256;28;19977;-81
2021/09/17 12:09:44;;;;;;;;;;;;;;;;;;5095505;28;20388;-82
2021/09/17 12:12:10;;;;;;;;;;;;;;;;;;5096110;28;20287;-82
2021/09/17 12:14:36;;;;;;;;;;;;;;;;;;5094433;28;20288;-82
2021/09/17 12:17:03;;;;;;;;;;;;;;;;;;5093252;28;20269;-83
2021/09/17 12:19:29;;;;;;;;;;;;;;;;;;5096256;28;19912;-86
2021/09/17 12:31:03;;;;;;;;;;;;;;;;;;5100517;28;19923;-82
2021/09/17 12:33:32;;;;;;;;;;;;;;;;;;5099748;28;19916;-81
2021/09/17 12:36:08;;;;;;;;;;;;;;;;;;5100248;28;19916;-82
2021/09/17 12:38:33;;;;;;;;;;;;;;;;;;5097465;28;19917;-80
2021/09/17 12:41:01;;;;;;;;;;;;;;;;;;5098334;28;19912;-81
2021/09/17 12:43:30;;;;;;;;;;;;;;;;;;5097934;28;19920;-81
2021/09/17 12:45:58;;;;;;;;;;;;;;;;;;5097128;28;19912;-81
2021/09/17 12:48:26;;;;;;;;;;;;;;;;;;5097969;28;19927;-85
2021/09/17 12:50:53;;;;;;;;;;;;;;;;;;5099740;28;19964;-81
2021/09/17 12:53:21;;;;;;;;;;;;;;;;;;5099711;28;19920;-81
2021/09/17 12:56:00;;;;;;;;;;;;;;;;;;5100310;28;20011;-81
2021/09/17 12:58:30;;;;;;;;;;;;;;;;;;5098613;28;19916;-81
2021/09/17 13:00:55;;;;;;;;;;;;;;;;;;5099306;28;20275;-80
2021/09/17 13:03:21;;;;;;;;;;;;;;;;;;5100357;28;19923;-86
2021/09/17 13:05:51;;;;;;;;;;;;;;;;;;5098140;28;20287;-81
2021/09/17 13:08:17;;;;;;;;;;;;;;;;;;5097720;28;19916;-81
2021/09/17 13:10:42;;;;;;;;;;;;;;;;;;5097661;28;19927;-80
2021/09/17 13:13:09;;;;;;;;;;;;;;;;;;5096907;28;19916;-80
2021/09/17 13:15:35;;;;;;;;;;;;;;;;;;5096873;28;20372;-80
2021/09/17 13:18:00;;;;;;;;;;;;;;;;;;5097447;28;19916;-81
2021/09/17 13:20:26;;;;;;;;;;;;;;;;;;5096811;28;20002;-81
2021/09/17 13:22:52;;;;;;;;;;;;;;;;;;5096922;28;19962;-81
2021/09/17 13:25:18;;;;;;;;;;;;;;;;;;5095427;28;20336;-80
2021/09/17 13:27:44;;;;;;;;;;;;;;;;;;5096315;28;19968;-81
2021/09/17 13:30:11;;;;;;;;;;;;;;;;;;5094756;28;19920;-81
2021/09/17 13:32:37;;;;;;;;;;;;;;;;;;5096821;28;20363;-81
2021/09/17 13:35:03;;;;;;;;;;;;;;;;;;5095085;28;19969;-80
2021/09/17 13:37:28;;;;;;;;;;;;;;;;;;5096482;28;19959;-83
2021/09/17 13:39:54;;;;;;;;;;;;;;;;;;5095471;28;19924;-81
2021/09/17 13:42:19;;;;;;;;;;;;;;;;;;5094906;28;19916;-81
2021/09/17 13:44:45;;;;;;;;;;;;;;;;;;5096921;28;19916;-81
2021/09/17 13:47:10;;;;;;;;;;;;;;;;;;5097082;28;20338;-81
2021/09/17 13:49:36;;;;;;;;;;;;;;;;;;5096938;28;19923;-81
2021/09/17 13:52:01;;;;;;;;;;;;;;;;;;5096813;28;19923;-83
2021/09/17 13:54:28;;;;;;;;;;;;;;;;;;5095428;28;19974;-84
2021/09/17 13:56:53;;;;;;;;;;;;;;;;;;5096713;28;19923;-83
2021/09/17 13:59:18;;;;;;;;;;;;;;;;;;5096596;28;20010;-82
2021/09/17 14:01:44;;;;;;;;;;;;;;;;;;5096723;28;19974;-84
2021/09/17 14:04:09;;;;;;;;;;;;;;;;;;5096112;28;19968;-83
2021/09/17 14:06:35;;;;;;;;;;;;;;;;;;5096173;28;19916;-83
2021/09/17 14:09:00;;;;;;;;;;;;;;;;;;5095997;28;20020;-82
2021/09/17 14:11:26;;;;;;;;;;;;;;;;;;5095815;28;20437;-83
2021/09/17 14:13:51;;;;;;;;;;;;;;;;;;5095716;28;19916;-82
2021/09/17 14:16:17;;;;;;;;;;;;;;;;;;5095871;28;19916;-82
2021/09/17 14:18:42;;;;;;;;;;;;;;;;;;5094384;28;19931;-83
2021/09/17 14:21:08;;;;;;;;;;;;;;;;;;5095669;28;19916;-83
2021/09/17 14:23:33;;;;;;;;;;;;;;;;;;5096573;28;19923;-82
2021/09/17 14:25:58;;;;;;;;;;;;;;;;;;5096961;28;20237;-82
2021/09/17 14:28:24;;;;;;;;;;;;;;;;;;5096875;28;20419;-82
2021/09/17 14:30:50;;;;;;;;;;;;;;;;;;5095435;28;20372;-83
2021/09/17 14:33:15;;;;;;;;;;;;;;;;;;5094109;28;19955;-82
2021/09/17 14:35:42;;;;;;;;;;;;;;;;;;5093998;28;19916;-83
2021/09/17 14:38:11;;;;;;;;;;;;;;;;;;5095346;28;20283;-82
2021/09/17 14:40:37;;;;;;;;;;;;;;;;;;5095058;28;20398;-82
2021/09/17 14:43:03;;;;;;;;;;;;;;;;;;5096531;28;19912;-82
2021/09/17 14:45:29;;;;;;;;;;;;;;;;;;5099264;28;19923;-83
2021/09/17 14:47:54;;;;;;;;;;;;;;;;;;5096767;28;19923;-83
2021/09/17 14:50:20;;;;;;;;;;;;;;;;;;5095492;28;19916;-83
2021/09/17 14:52:45;;;;;;;;;;;;;;;;;;5095726;28;20318;-84
2021/09/17 14:55:11;;;;;;;;;;;;;;;;;;5095484;28;19916;-82
2021/09/17 14:57:36;;;;;;;;;;;;;;;;;;5096891;28;19924;-82
2021/09/17 15:00:02;;;;;;;;;;;;;;;;;;5096923;28;19912;-82
2021/09/17 15:02:28;;;;;;;;;;;;;;;;;;5096172;28;19916;-82
2021/09/17 15:04:53;;;;;;;;;;;;;;;;;;5095660;28;19916;-81
2021/09/17 15:07:19;;;;;;;;;;;;;;;;;;5094998;28;19912;-82
2021/09/17 15:09:45;;;;;;;;;;;;;;;;;;5095833;28;19920;-81
2021/09/17 15:12:11;;;;;;;;;;;;;;;;;;5096187;28;19982;-80
2021/09/17 15:14:36;;;;;;;;;;;;;;;;;;5097346;28;19917;-81
2021/09/17 15:17:01;;;;;;;;;;;;;;;;;;5095769;28;19916;-82
2021/09/17 15:19:27;;;;;;;;;;;;;;;;;;5097484;28;19919;-81
2021/09/17 15:21:52;;;;;;;;;;;;;;;;;;5096002;28;19916;-83
2021/09/17 15:24:18;;;;;;;;;;;;;;;;;;5096211;28;19931;-81
2021/09/17 15:26:43;;;;;;;;;;;;;;;;;;5094553;28;19912;-82
2021/09/17 15:29:09;;;;;;;;;;;;;;;;;;5096021;28;19916;-80
2021/09/17 15:31:35;;;;;;;;;;;;;;;;;;5095444;28;19991;-81
2021/09/17 15:34:00;;;;;;;;;;;;;;;;;;5095968;28;19916;-80
2021/09/17 15:36:26;;;;;;;;;;;;;;;;;;5096671;28;19920;-80
2021/09/17 15:38:51;;;;;;;;;;;;;;;;;;5096991;28;20425;-80
2021/09/17 15:41:16;;;;;;;;;;;;;;;;;;5097940;28;19930;-81
2021/09/17 15:43:43;;;;;;;;;;;;;;;;;;5103671;28;20006;-80
2021/09/17 15:46:09;;;;;;;;;;;;;;;;;;5098258;28;19942;-81
2021/09/17 15:48:34;;;;;;;;;;;;;;;;;;5094954;28;19920;-81
2021/09/17 15:51:00;;;;;;;;;;;;;;;;;;5095930;28;19916;-81
2021/09/17 15:53:28;;;;;;;;;;;;;;;;;;5095452;28;19939;-81
2021/09/17 15:55:54;;;;;;;;;;;;;;;;;;5094536;28;19916;-81
2021/09/17 15:58:20;;;;;;;;;;;;;;;;;;5096015;28;19916;-81
2021/09/17 16:00:45;;;;;;;;;;;;;;;;;;5095577;28;19924;-81
2021/09/17 16:03:12;;;;;;;;;;;;;;;;;;5096677;28;19938;-83
2021/09/17 16:05:37;;;;;;;;;;;;;;;;;;5096543;28;19916;-80
2021/09/17 16:08:03;;;;;;;;;;;;;;;;;;5095669;28;19916;-81
2021/09/17 16:10:29;;;;;;;;;;;;;;;;;;5097002;28;19916;-81
2021/09/17 16:12:54;;;;;;;;;;;;;;;;;;5094020;28;19933;-80
2021/09/17 16:15:20;;;;;;;;;;;;;;;;;;5095108;28;19916;-80
2021/09/17 16:17:45;;;;;;;;;;;;;;;;;;5094975;28;19916;-81
2021/09/17 16:20:11;;;;;;;;;;;;;;;;;;5094579;28;20371;-80
2021/09/17 16:22:37;;;;;;;;;;;;;;;;;;5094800;28;19916;-82
2021/09/17 16:25:03;;;;;;;;;;;;;;;;;;5095463;28;19922;-80
2021/09/17 16:27:31;;;;;;;;;;;;;;;;;;5095354;28;19916;-81
2021/09/17 16:29:57;;;;;;;;;;;;;;;;;;5097491;28;19939;-80
2021/09/17 16:32:22;;;;;;;;;;;;;;;;;;5094687;28;20375;-81
2021/09/17 16:34:48;;;;;;;;;;;;;;;;;;5094330;28;20268;-81
2021/09/17 16:37:13;;;;;;;;;;;;;;;;;;5096305;28;20314;-81
2021/09/17 16:39:39;;;;;;;;;;;;;;;;;;5093603;28;19912;-81
2021/09/17 16:42:04;;;;;;;;;;;;;;;;;;5093256;28;19920;-81
2021/09/17 16:44:30;;;;;;;;;;;;;;;;;;5095273;28;19969;-81
2021/09/17 16:46:56;;;;;;;;;;;;;;;;;;5094389;28;19912;-81
2021/09/17 16:49:21;;;;;;;;;;;;;;;;;;5093209;28;19916;-81